Time;durP1;ratioP1;P1;durP2;ratioP2;P2;SDS_P1;SDS_P2;PMS_P1;PMS_P2;Temp;Humidity;BMP_temperature;BMP_pressure;BME280_temperature;BME280_humidity;BME280_pressure;Samples;Min_cycle;Max_cycle;Signal;HPM_P1;HPM_P2
2023/01/20 00:02:38;;;;;;;0.82;0.60;;;6.20;99.90;;;;;;10476422;28;20048;-63
2023/01/20 00:07:57;;;;;;;1.10;0.73;;;6.20;99.90;;;;;;10466288;28;20028;-61
2023/01/20 00:13:16;;;;;;;1.58;0.82;;;6.20;99.90;;;;;;10464137;28;20021;-63
2023/01/20 00:18:36;;;;;;;;;;;6.20;99.90;;;;;;10475223;28;20179;-61
2023/01/20 00:23:55;;;;;;;1.42;0.70;;;6.10;99.90;;;;;;10467417;28;19904;-63
2023/01/20 00:29:14;;;;;;;;;;;6.10;99.90;;;;;;10479055;28;20024;-61
2023/01/20 00:34:33;;;;;;;2.38;0.80;;;7.00;99.90;;;;;;10464593;28;19913;-61
2023/01/20 00:39:52;;;;;;;1.67;0.80;;;6.50;99.90;;;;;;10464616;28;20033;-61
2023/01/20 00:45:11;;;;;;;;;;;6.10;99.90;;;;;;10457214;28;20086;-63
2023/01/20 00:50:31;;;;;;;1.30;1.00;;;6.10;99.90;;;;;;10486827;28;20302;-61
2023/01/20 00:55:50;;;;;;;1.10;0.90;;;6.10;99.90;;;;;;10478687;28;20507;-61
2023/01/20 01:01:10;;;;;;;2.72;1.00;;;6.10;99.90;;;;;;10474069;28;20033;-62
2023/01/20 01:06:29;;;;;;;2.45;1.10;;;6.10;99.90;;;;;;10479353;28;20495;-61
2023/01/20 01:11:49;;;;;;;;;;;6.10;99.90;;;;;;10473906;28;20432;-61
2023/01/20 01:17:08;;;;;;;2.00;0.90;;;6.10;99.90;;;;;;10474480;28;19905;-64
2023/01/20 01:22:27;;;;;;;1.80;1.10;;;6.10;99.90;;;;;;10486144;28;20466;-63
2023/01/20 01:27:46;;;;;;;2.85;1.48;;;6.00;99.90;;;;;;10472914;28;20025;-61
2023/01/20 01:33:05;;;;;;;2.80;1.55;;;5.70;99.90;;;;;;10476911;28;20025;-61
2023/01/20 01:38:24;;;;;;;3.10;2.13;;;6.00;99.90;;;;;;10485484;28;20036;-61
2023/01/20 01:44:11;;;;;;;3.08;1.70;;;6.00;99.90;;;;;;10475685;28;20041;-62
2023/01/20 01:49:31;;;;;;;2.85;1.83;;;6.00;99.90;;;;;;10464860;28;20025;-62
2023/01/20 01:54:51;;;;;;;3.15;2.05;;;6.00;99.90;;;;;;10469053;28;20025;-61
2023/01/20 02:00:11;;;;;;;3.33;1.98;;;6.00;99.90;;;;;;10476499;28;20037;-62
2023/01/20 02:05:31;;;;;;;2.95;1.80;;;6.00;99.90;;;;;;10470050;28;20052;-62
2023/01/20 02:10:51;;;;;;;3.78;2.00;;;6.00;99.90;;;;;;10478338;28;20025;-62
2023/01/20 02:16:23;;;;;;;3.45;2.17;;;6.00;99.90;;;;;;10477146;28;20017;-62
2023/01/20 02:21:45;;;;;;;4.88;2.30;;;6.00;99.90;;;;;;10480114;28;20040;-64
2023/01/20 02:27:12;;;;;;;3.65;2.17;;;6.00;99.90;;;;;;10482415;28;20036;-62
2023/01/20 02:32:54;;;;;;;4.55;2.60;;;6.00;99.90;;;;;;10472165;28;20032;-64
2023/01/20 02:38:26;;;;;;;4.72;2.65;;;6.00;99.90;;;;;;10475006;28;20029;-67
2023/01/20 02:44:09;;;;;;;3.35;2.35;;;6.00;99.90;;;;;;10482003;28;20025;-65
2023/01/20 02:49:38;;;;;;;6.10;2.70;;;6.00;99.90;;;;;;10475397;28;20024;-61
2023/01/20 02:55:03;;;;;;;5.90;2.85;;;5.90;99.90;;;;;;10476588;28;20259;-61
2023/01/20 03:00:35;;;;;;;5.10;2.67;;;5.90;99.90;;;;;;10484471;28;20032;-61
2023/01/20 03:05:58;;;;;;;5.35;2.42;;;6.00;99.90;;;;;;10462748;28;20025;-61
2023/01/20 03:11:17;;;;;;;5.25;2.88;;;5.90;99.90;;;;;;10476299;28;20115;-61
2023/01/20 03:16:37;;;;;;;5.63;2.88;;;5.90;99.90;;;;;;10469892;28;20104;-62
2023/01/20 03:21:57;;;;;;;5.72;2.88;;;5.90;99.90;;;;;;10484934;28;20115;-62
2023/01/20 03:27:16;;;;;;;;;;;5.90;99.90;;;;;;10469740;28;20028;-61
2023/01/20 03:32:35;;;;;;;;;;;5.90;99.90;;;;;;10479534;28;20273;-61
2023/01/20 03:37:54;;;;;;;4.90;2.70;;;5.90;99.90;;;;;;10475856;28;19912;-62
2023/01/20 03:43:18;;;;;;;;;;;5.90;99.90;;;;;;10473528;28;20471;-63
2023/01/20 03:48:45;;;;;;;6.68;3.38;;;5.90;99.90;;;;;;10467720;28;19983;-66
2023/01/20 03:54:09;;;;;;;6.25;3.13;;;5.90;99.90;;;;;;10465715;28;20021;-64
2023/01/20 03:59:36;;;;;;;8.63;3.72;;;5.90;99.90;;;;;;10467536;28;20681;-62
2023/01/20 04:04:57;;;;;;;5.80;3.30;;;5.90;99.90;;;;;;10463245;28;20469;-66
2023/01/20 04:10:16;;;;;;;6.70;3.55;;;5.90;99.90;;;;;;10461669;28;20017;-64
2023/01/20 04:15:43;;;;;;;6.47;3.17;;;5.90;99.90;;;;;;10479315;28;20461;-62
2023/01/20 04:21:03;;;;;;;7.65;3.63;;;5.90;99.90;;;;;;10470531;28;20037;-62
2023/01/20 04:26:22;;;;;;;;;;;5.90;99.90;;;;;;10479483;28;20036;-66
2023/01/20 04:31:41;;;;;;;;;;;5.90;99.90;;;;;;10482243;28;19916;-62
2023/01/20 04:37:00;;;;;;;;;;;5.90;99.90;;;;;;10484171;28;19904;-67
2023/01/20 04:42:20;;;;;;;8.38;3.55;;;5.90;99.90;;;;;;10470470;28;19912;-68
2023/01/20 04:47:39;;;;;;;;;;;5.90;99.90;;;;;;10486581;28;20021;-63
2023/01/20 04:52:58;;;;;;;7.45;3.63;;;5.80;99.90;;;;;;10483232;28;20007;-66
2023/01/20 04:58:17;;;;;;;8.00;4.13;;;5.80;99.90;;;;;;10468329;28;20112;-65
2023/01/20 05:03:36;;;;;;;8.45;3.83;;;5.80;99.90;;;;;;10475517;28;20020;-63
2023/01/20 05:08:55;;;;;;;;;;;5.80;99.90;;;;;;10478574;28;20028;-66
2023/01/20 05:14:14;;;;;;;10.73;4.40;;;5.80;99.90;;;;;;10477004;28;19905;-66
2023/01/20 05:19:33;;;;;;;8.85;4.53;;;5.80;99.90;;;;;;10480259;28;20040;-63
2023/01/20 05:24:52;;;;;;;11.18;5.00;;;5.80;99.90;;;;;;10475296;28;20020;-62
2023/01/20 05:30:11;;;;;;;11.68;5.10;;;5.80;99.90;;;;;;10468741;28;20021;-62
2023/01/20 05:35:31;;;;;;;11.30;4.90;;;5.80;99.90;;;;;;10480736;28;20024;-62
2023/01/20 05:40:57;;;;;;;11.50;5.55;;;5.80;99.90;;;;;;10469204;28;20025;-65
2023/01/20 05:46:16;;;;;;;13.48;5.80;;;5.80;99.90;;;;;;10473912;28;20032;-62
2023/01/20 05:51:35;;;;;;;13.75;6.38;;;5.80;99.90;;;;;;10483140;28;20024;-65
2023/01/20 05:56:54;;;;;;;;;;;5.80;99.90;;;;;;10473122;28;20485;-66
2023/01/20 06:02:17;;;;;;;12.43;5.47;;;5.80;99.90;;;;;;10466769;28;19920;-64
2023/01/20 06:07:36;;;;;;;13.25;5.72;;;5.90;99.90;;;;;;10472661;28;20068;-62
2023/01/20 06:12:56;;;;;;;13.95;6.18;;;5.90;99.90;;;;;;10475613;28;20024;-63
2023/01/20 06:18:15;;;;;;;12.13;6.07;;;5.90;99.90;;;;;;10467284;28;20561;-62
2023/01/20 06:23:34;;;;;;;14.27;6.53;;;5.90;99.90;;;;;;10482340;28;20024;-68
2023/01/20 06:28:58;;;;;;;14.07;6.82;;;5.80;99.90;;;;;;10463099;28;20472;-64
2023/01/20 06:34:17;;;;;;;14.52;6.97;;;5.80;99.90;;;;;;10468652;28;20016;-63
2023/01/20 06:39:37;;;;;;;;;;;5.80;99.90;;;;;;10468422;28;20033;-67
2023/01/20 06:44:56;;;;;;;18.00;7.60;;;5.80;99.90;;;;;;10477269;28;20346;-65
2023/01/20 06:50:16;;;;;;;19.67;7.97;;;5.80;99.90;;;;;;10460104;28;20481;-63
2023/01/20 06:55:35;;;;;;;19.63;7.65;;;5.80;99.90;;;;;;10471357;28;20032;-63
2023/01/20 07:00:55;;;;;;;16.45;8.25;;;5.80;99.90;;;;;;10469829;28;20037;-62
2023/01/20 07:06:23;;;;;;;18.50;8.68;;;5.80;99.90;;;;;;10475469;28;20040;-67
2023/01/20 07:11:43;;;;;;;21.33;7.97;;;5.80;99.90;;;;;;10469179;28;20040;-66
2023/01/20 07:17:02;;;;;;;;;;;5.70;99.90;;;;;;10482311;28;20536;-63
2023/01/20 07:22:21;;;;;;;16.38;7.60;;;5.70;99.90;;;;;;10479498;28;19920;-64
2023/01/20 07:27:41;;;;;;;17.80;7.35;;;5.70;99.90;;;;;;10464700;28;20025;-64
2023/01/20 07:33:00;;;;;;;20.27;8.80;;;5.70;99.90;;;;;;10454821;28;20108;-64
2023/01/20 07:38:19;;;;;;;19.70;8.10;;;5.70;99.90;;;;;;10463568;28;20041;-62
2023/01/20 07:43:38;;;;;;;;;;;5.70;99.90;;;;;;10463419;28;20032;-66
2023/01/20 07:48:57;;;;;;;21.50;8.93;;;5.70;99.90;;;;;;10461662;28;19905;-63
2023/01/20 07:54:16;;;;;;;21.38;9.50;;;5.70;99.90;;;;;;10464327;28;20033;-67
2023/01/20 07:59:35;;;;;;;24.30;9.25;;;5.70;99.90;;;;;;10461790;28;20069;-64
2023/01/20 08:04:54;;;;;;;25.40;9.40;;;5.70;99.90;;;;;;10459569;28;20500;-66
2023/01/20 08:10:13;;;;;;;24.20;9.25;;;5.70;99.90;;;;;;10463179;28;20557;-67
2023/01/20 08:15:33;;;;;;;23.98;10.07;;;5.70;99.90;;;;;;10459358;28;20321;-69
2023/01/20 08:20:52;;;;;;;24.67;9.77;;;5.70;99.90;;;;;;10459320;28;20040;-64
2023/01/20 08:26:11;;;;;;;22.67;9.63;;;6.40;99.90;;;;;;10464779;28;20029;-64
2023/01/20 08:31:30;;;;;;;;;;;5.70;99.90;;;;;;10461854;28;20049;-65
2023/01/20 08:36:52;;;;;;;28.13;10.27;;;5.70;99.90;;;;;;10458880;28;19912;-67
2023/01/20 08:42:11;;;;;;;23.05;10.70;;;5.70;99.90;;;;;;10458655;28;20131;-66
2023/01/20 08:47:30;;;;;;;26.35;10.13;;;5.70;99.90;;;;;;10462752;28;20033;-67
2023/01/20 08:52:49;;;;;;;;;;;5.80;99.90;;;;;;10460825;28;20127;-68
2023/01/20 08:58:08;;;;;;;;;;;5.70;99.80;;;;;;10468846;28;20226;-66
2023/01/20 09:03:28;;;;;;;28.48;10.35;;;5.90;99.80;;;;;;10456573;28;20238;-66
2023/01/20 09:08:48;;;;;;;24.65;9.68;;;5.70;99.90;;;;;;10468716;28;20099;-64
2023/01/20 09:14:07;;;;;;;24.73;9.18;;;5.70;99.90;;;;;;10466986;28;20694;-69
2023/01/20 09:19:27;;;;;;;;;;;5.80;99.90;;;;;;10471108;28;20028;-69
2023/01/20 09:24:46;;;;;;;22.27;8.77;;;5.80;99.80;;;;;;10481346;28;20145;-63
2023/01/20 09:30:05;;;;;;;22.02;9.35;;;5.90;99.90;;;;;;10474194;28;20384;-64
2023/01/20 09:35:25;;;;;;;23.88;9.15;;;5.90;99.90;;;;;;10480944;28;20032;-65
2023/01/20 09:47:20;;;;;;;22.55;8.40;;;5.80;99.90;;;;;;10472830;28;20032;-64
2023/01/20 09:58:41;;;;;;;27.10;10.32;;;5.80;99.90;;;;;;10475888;28;20044;-64
2023/01/20 10:04:19;;;;;;;23.00;9.77;;;5.80;99.90;;;;;;10483281;28;20044;-64
2023/01/20 10:10:00;;;;;;;23.20;9.32;;;5.80;99.90;;;;;;10476034;28;20409;-64
2023/01/20 10:15:34;;;;;;;28.35;9.60;;;5.90;99.90;;;;;;10477553;28;20382;-62
2023/01/20 10:21:13;;;;;;;22.63;9.40;;;5.90;99.70;;;;;;10485988;28;20036;-67
2023/01/20 10:26:45;;;;;;;25.50;9.50;;;5.60;99.90;;;;;;10483979;28;20095;-68
2023/01/20 10:32:35;;;;;;;28.63;9.88;;;5.70;99.90;;;;;;10477607;28;20025;-65
2023/01/20 10:37:55;;;;;;;27.42;10.32;;;5.30;99.80;;;;;;10481551;28;20036;-64
2023/01/20 10:43:16;;;;;;;27.65;10.27;;;4.90;99.90;;;;;;10471449;28;20032;-64
2023/01/20 10:49:03;;;;;;;30.92;8.88;;;4.70;99.90;;;;;;10470741;28;20036;-64
2023/01/20 10:54:52;;;;;;;26.45;9.30;;;4.60;99.90;;;;;;10464157;28;20025;-65
2023/01/20 11:00:22;;;;;;;22.10;8.70;;;4.90;99.90;;;;;;10483894;28;20044;-63
2023/01/20 11:05:41;;;;;;;25.15;8.68;;;5.10;99.90;;;;;;10479921;28;20481;-65
2023/01/20 11:11:11;;;;;;;26.10;9.85;;;5.20;99.90;;;;;;10478022;28;20074;-63
2023/01/20 11:16:30;;;;;;;;;;;5.30;99.90;;;;;;10482658;28;20029;-63
2023/01/20 11:21:49;;;;;;;19.67;7.80;;;5.40;99.90;;;;;;10481424;28;19920;-64
2023/01/20 11:27:17;;;;;;;20.88;8.15;;;5.50;99.90;;;;;;10466741;28;20020;-63
2023/01/20 11:32:40;;;;;;;21.33;8.60;;;5.50;99.90;;;;;;10478111;28;20032;-63
2023/01/20 11:38:21;;;;;;;19.65;8.10;;;5.60;99.90;;;;;;10468215;28;20469;-64
2023/01/20 11:43:40;;;;;;;21.00;7.72;;;5.60;99.90;;;;;;10455397;28;20032;-63
2023/01/20 11:49:14;;;;;;;;;;;5.70;99.90;;;;;;10461423;28;20489;-65
2023/01/20 11:54:33;;;;;;;26.00;7.88;;;5.70;99.90;;;;;;10465653;28;19916;-63
2023/01/20 11:59:52;;;;;;;;;;;5.80;99.90;;;;;;10481551;28;20033;-64
2023/01/20 12:05:24;;;;;;;23.90;8.90;;;6.00;99.90;;;;;;10464793;28;20004;-64
2023/01/20 12:10:44;;;;;;;20.35;8.32;;;5.90;99.90;;;;;;10458996;28;20025;-67
2023/01/20 12:16:05;;;;;;;20.05;8.48;;;5.90;99.90;;;;;;10455904;28;20204;-64
2023/01/20 12:21:33;;;;;;;21.98;8.38;;;5.80;99.90;;;;;;10453969;28;20065;-62
2023/01/20 12:26:52;;;;;;;22.77;8.27;;;5.80;99.90;;;;;;10462880;28;20060;-63
2023/01/20 12:32:12;;;;;;;26.23;8.63;;;5.90;99.90;;;;;;10414865;28;20404;-63
2023/01/20 12:37:43;;;;;;;18.83;8.13;;;5.80;99.90;;;;;;10437092;28;20029;-63
2023/01/20 12:43:10;;;;;;;20.20;8.30;;;5.80;99.90;;;;;;10438460;28;20033;-63
2023/01/20 12:48:39;;;;;;;19.02;7.63;;;5.80;99.90;;;;;;10436879;28;20029;-66
2023/01/20 12:54:01;;;;;;;;;;;5.80;99.90;;;;;;10440140;28;20542;-68
2023/01/20 12:59:31;;;;;;;22.48;8.20;;;5.80;99.90;;;;;;10435313;28;20285;-62
2023/01/20 13:05:03;;;;;;;18.10;8.27;;;5.80;99.90;;;;;;10434729;28;20100;-63
2023/01/20 13:10:56;;;;;;;25.90;8.35;;;5.90;99.90;;;;;;10434779;28;20537;-66
2023/01/20 13:16:39;;;;;;;20.00;7.45;;;5.80;99.90;;;;;;10446949;28;20171;-65
2023/01/20 13:22:15;;;;;;;20.23;8.00;;;5.80;99.90;;;;;;10443731;28;20033;-63
2023/01/20 13:27:37;;;;;;;18.67;7.55;;;5.80;99.90;;;;;;10441872;28;20033;-62
2023/01/20 13:33:04;;;;;;;20.55;8.60;;;5.80;99.90;;;;;;10445128;28;20041;-62
2023/01/20 13:38:29;;;;;;;21.33;8.00;;;5.80;99.90;;;;;;10436711;28;20033;-62
2023/01/20 13:43:49;;;;;;;18.45;7.85;;;5.90;99.90;;;;;;10443908;28;20116;-69
2023/01/20 13:49:22;;;;;;;22.83;8.05;;;5.90;99.90;;;;;;10441897;28;20096;-63
2023/01/20 13:54:43;;;;;;;24.65;8.50;;;5.90;99.90;;;;;;10439556;28;20037;-61
2023/01/20 14:00:11;;;;;;;23.15;8.23;;;5.90;99.90;;;;;;10446372;28;20044;-62
2023/01/20 14:05:31;;;;;;;22.55;8.38;;;5.90;99.90;;;;;;10442168;28;20255;-62
2023/01/20 14:10:50;;;;;;;19.00;7.70;;;5.90;99.90;;;;;;10442999;28;20021;-62
2023/01/20 14:16:25;;;;;;;19.98;7.95;;;5.90;99.90;;;;;;10443341;28;20021;-72
2023/01/20 14:21:51;;;;;;;24.20;8.80;;;5.90;99.90;;;;;;10441723;28;20045;-61
2023/01/20 14:27:25;;;;;;;21.48;7.55;;;5.90;99.90;;;;;;10440604;28;21615;-64
2023/01/20 14:32:45;;;;;;;19.60;7.43;;;5.90;99.90;;;;;;10443671;28;20040;-62
2023/01/20 14:38:14;;;;;;;22.27;8.77;;;6.60;99.90;;;;;;10437371;28;20049;-66
2023/01/20 14:43:43;;;;;;;;;;;5.90;99.90;;;;;;10444101;28;20025;-64
2023/01/20 14:49:03;;;;;;;19.77;8.43;;;5.80;99.30;;;;;;10440818;28;20120;-64
2023/01/20 14:54:34;;;;;;;23.95;8.35;;;5.40;99.80;;;;;;10441334;28;20032;-65
2023/01/20 15:00:12;;;;;;;22.52;9.30;;;5.00;99.90;;;;;;10439321;28;20041;-62
2023/01/20 15:05:34;;;;;;;20.63;7.25;;;4.90;99.90;;;;;;10438584;28;20021;-63
2023/01/20 15:11:16;;;;;;;22.63;8.35;;;5.50;99.90;;;;;;10440814;28;20021;-59
2023/01/20 15:16:37;;;;;;;22.27;7.55;;;5.20;99.90;;;;;;10439856;28;20021;-65
2023/01/20 15:22:17;;;;;;;19.52;8.23;;;5.30;99.90;;;;;;10435381;28;20065;-66
2023/01/20 15:27:37;;;;;;;22.02;8.20;;;5.20;99.80;;;;;;10434795;28;20568;-64
2023/01/20 15:32:56;;;;;;;28.00;8.95;;;5.20;99.90;;;;;;10432670;28;20100;-62
2023/01/20 15:38:16;;;;;;;21.65;8.57;;;5.80;99.90;;;;;;10443096;28;20020;-64
2023/01/20 15:43:35;;;;;;;20.80;8.02;;;5.60;99.90;;;;;;10441051;28;20069;-64
2023/01/20 15:48:54;;;;;;;20.83;7.18;;;5.60;99.90;;;;;;10437748;28;20473;-63
2023/01/20 15:54:14;;;;;;;19.75;7.78;;;5.60;99.90;;;;;;10434249;28;20037;-62
2023/01/20 15:59:34;;;;;;;18.90;6.40;;;5.70;99.90;;;;;;10440429;28;20032;-64
2023/01/20 16:04:53;;;;;;;17.80;6.97;;;5.70;99.90;;;;;;10444048;28;20172;-62
2023/01/20 16:10:14;;;;;;;;;;;5.70;99.90;;;;;;10432038;28;20444;-63
2023/01/20 16:15:33;;;;;;;16.02;7.43;;;5.70;99.90;;;;;;10443451;28;19905;-65
2023/01/20 16:20:52;;;;;;;21.77;7.95;;;5.80;99.80;;;;;;10441740;28;20072;-64
2023/01/20 16:26:14;;;;;;;18.10;7.88;;;5.10;99.90;;;;;;10442689;28;20025;-66
2023/01/20 16:31:33;;;;;;;22.65;8.07;;;5.30;99.90;;;;;;10444400;28;20042;-64
2023/01/20 16:36:53;;;;;;;20.00;8.38;;;5.40;99.90;;;;;;10441650;28;20037;-65
2023/01/20 16:42:19;;;;;;;21.08;8.68;;;5.50;99.90;;;;;;10440766;28;20033;-64
2023/01/20 16:47:39;;;;;;;17.70;7.38;;;6.30;99.90;;;;;;10433341;28;20036;-63
2023/01/20 16:52:58;;;;;;;20.52;6.85;;;6.40;99.90;;;;;;10439385;28;20033;-67
2023/01/20 16:58:17;;;;;;;26.50;7.65;;;5.90;99.90;;;;;;10435598;28;20045;-65
2023/01/20 17:03:40;;;;;;;;;;;6.90;99.90;;;;;;10438437;28;20033;-69
2023/01/20 17:09:02;;;;;;;18.77;7.75;;;5.30;99.90;;;;;;10445723;28;19913;-69
2023/01/20 17:14:21;;;;;;;17.23;6.97;;;5.90;99.90;;;;;;10437731;28;20532;-64
2023/01/20 17:19:40;;;;;;;23.75;8.35;;;5.70;99.90;;;;;;10421747;28;21708;-64
2023/01/20 17:24:59;;;;;;;18.58;7.53;;;6.40;99.90;;;;;;10444243;28;20033;-64
2023/01/20 17:30:18;;;;;;;;;;;6.90;99.90;;;;;;10441312;28;20040;-64
2023/01/20 17:35:37;;;;;;;21.10;7.55;;;5.60;99.90;;;;;;10454167;28;19954;-64
2023/01/20 17:41:00;;;;;;;17.75;7.80;;;5.70;99.90;;;;;;10446757;28;20515;-65
2023/01/20 17:46:22;;;;;;;21.02;8.65;;;5.70;99.90;;;;;;10429777;28;20021;-64
2023/01/20 17:51:46;;;;;;;18.30;7.90;;;5.70;99.90;;;;;;10432547;28;20021;-64
2023/01/20 17:57:05;;;;;;;16.27;7.60;;;5.80;99.90;;;;;;10433320;28;20029;-67
2023/01/20 18:02:34;;;;;;;;;;;5.80;99.90;;;;;;10841464;22;20036;-71
2023/01/20 18:07:53;;;;;;;24.37;10.17;;;5.80;99.90;;;;;;10516763;22;20011;-66
2023/01/20 18:13:15;;;;;;;21.88;9.18;;;5.90;99.90;;;;;;10512356;28;20040;-66
2023/01/20 18:18:47;;;;;;;19.95;8.82;;;6.80;99.90;;;;;;10505328;28;20040;-67
2023/01/20 18:24:09;;;;;;;20.88;9.52;;;5.90;99.90;;;;;;10514999;28;20021;-65
2023/01/20 18:29:29;;;;;;;22.00;9.52;;;5.90;99.90;;;;;;10521838;28;20020;-66
2023/01/20 18:34:48;;;;;;;19.60;8.45;;;5.90;99.90;;;;;;10522021;28;20452;-66
2023/01/20 18:40:09;;;;;;;;;;;5.90;99.90;;;;;;10521002;28;20294;-66
2023/01/20 18:45:29;;;;;;;25.27;9.63;;;5.90;99.90;;;;;;10515222;28;20372;-67
2023/01/20 18:50:48;;;;;;;;;;;5.90;99.90;;;;;;10506905;28;20032;-65
2023/01/20 18:56:10;;;;;;;22.95;9.30;;;6.00;99.90;;;;;;10520762;28;19905;-65
2023/01/20 19:01:32;;;;;;;24.30;8.75;;;5.90;99.90;;;;;;10508381;28;20047;-64
2023/01/20 19:06:51;;;;;;;19.77;8.88;;;6.10;99.90;;;;;;10509062;28;20417;-66
2023/01/20 19:12:11;;;;;;;24.13;9.20;;;6.10;99.90;;;;;;10516404;28;20016;-65
2023/01/20 19:17:31;;;;;;;22.95;9.27;;;6.10;99.90;;;;;;10508103;28;20036;-64
2023/01/20 19:23:00;;;;;;;21.73;9.85;;;6.40;99.90;;;;;;10502742;28;20044;-63
2023/01/20 19:28:20;;;;;;;19.50;8.25;;;7.30;99.90;;;;;;10505536;28;20104;-64
2023/01/20 19:33:39;;;;;;;20.85;9.05;;;7.40;99.90;;;;;;10507100;28;20889;-66
2023/01/20 19:39:02;;;;;;;23.15;9.25;;;6.00;99.90;;;;;;10512600;28;20449;-63
2023/01/20 19:44:22;;;;;;;23.55;9.57;;;6.00;99.90;;;;;;10515740;28;20043;-64
2023/01/20 19:49:41;;;;;;;20.63;8.55;;;6.00;99.90;;;;;;10527780;28;20028;-65
2023/01/20 19:55:14;;;;;;;21.55;8.73;;;7.00;99.90;;;;;;10522983;28;20032;-64
2023/01/20 20:00:33;;;;;;;21.73;8.68;;;6.00;99.90;;;;;;10514915;28;20240;-64
2023/01/20 20:05:56;;;;;;;19.35;8.57;;;6.00;99.90;;;;;;10502193;28;20106;-66
2023/01/20 20:11:16;;;;;;;18.75;8.05;;;6.00;99.90;;;;;;10502873;28;20021;-65
2023/01/20 20:16:36;;;;;;;23.45;9.63;;;6.00;99.90;;;;;;10514539;28;20025;-63
2023/01/20 20:21:57;;;;;;;21.48;8.85;;;6.00;99.90;;;;;;10517008;28;20552;-64
2023/01/20 20:27:17;;;;;;;24.92;8.95;;;6.00;99.90;;;;;;10513792;28;20036;-66
2023/01/20 20:32:36;;;;;;;19.98;8.45;;;6.00;99.90;;;;;;10516267;28;20028;-65
2023/01/20 20:37:56;;;;;;;19.98;8.60;;;5.90;99.90;;;;;;10509690;28;20461;-64
2023/01/20 20:43:15;;;;;;;18.67;7.93;;;5.90;99.90;;;;;;10513596;28;20036;-65
2023/01/20 20:48:40;;;;;;;19.58;8.75;;;5.90;99.90;;;;;;10503146;28;20039;-65
2023/01/20 20:54:02;;;;;;;17.52;8.35;;;6.20;99.90;;;;;;10521111;28;20028;-64
2023/01/20 20:59:23;;;;;;;19.85;8.75;;;5.90;99.90;;;;;;10508409;28;20039;-64
2023/01/20 21:04:43;;;;;;;19.08;8.30;;;5.90;99.90;;;;;;10510575;28;20119;-64
2023/01/20 21:10:03;;;;;;;17.67;8.55;;;5.70;99.90;;;;;;10514557;28;20032;-65
2023/01/20 21:15:23;;;;;;;19.35;8.88;;;5.90;99.90;;;;;;10528095;28;20031;-63
2023/01/20 21:20:43;;;;;;;18.67;8.77;;;7.30;99.90;;;;;;10516398;28;20036;-67
2023/01/20 21:26:05;;;;;;;19.95;8.25;;;5.90;99.90;;;;;;10506199;28;20025;-64
2023/01/20 21:31:25;;;;;;;19.13;8.27;;;5.90;99.90;;;;;;10521017;28;20024;-68
2023/01/20 21:36:44;;;;;;;18.25;7.78;;;5.90;99.90;;;;;;10512350;28;20032;-67
2023/01/20 21:42:04;;;;;;;19.13;7.88;;;5.90;99.90;;;;;;10508085;28;20037;-68
2023/01/20 21:47:24;;;;;;;19.88;8.45;;;5.80;99.90;;;;;;10514779;28;20055;-67
2023/01/20 21:52:44;;;;;;;16.60;8.00;;;5.80;99.90;;;;;;10518648;28;20452;-63
2023/01/20 21:58:03;;;;;;;16.17;7.47;;;5.70;99.90;;;;;;10513373;28;20036;-67
2023/01/20 22:03:22;;;;;;;17.17;7.80;;;6.90;99.90;;;;;;10508665;28;20036;-63
2023/01/20 22:08:41;;;;;;;;;;;5.70;99.90;;;;;;10500688;28;20568;-64
2023/01/20 22:14:01;;;;;;;16.63;7.80;;;5.70;99.90;;;;;;10512435;28;19946;-66
2023/01/20 22:19:20;;;;;;;16.95;7.22;;;5.70;99.90;;;;;;10536097;28;20107;-67
2023/01/20 22:24:40;;;;;;;18.48;8.52;;;5.70;99.90;;;;;;10512978;28;20036;-62
2023/01/20 22:30:00;;;;;;;17.33;7.15;;;5.60;99.90;;;;;;10507830;28;20023;-67
2023/01/20 22:35:20;;;;;;;18.10;7.57;;;5.60;99.90;;;;;;10511587;28;20420;-67
2023/01/20 22:40:39;;;;;;;14.27;6.57;;;5.60;99.90;;;;;;10508675;28;20267;-63
2023/01/20 22:46:02;;;;;;;14.98;6.97;;;6.20;99.90;;;;;;10498841;28;20120;-67
2023/01/20 22:51:25;;;;;;;15.73;7.43;;;5.50;99.90;;;;;;10499146;28;20256;-63
2023/01/20 22:56:45;;;;;;;16.20;6.97;;;5.50;99.90;;;;;;10507348;28;20495;-66
2023/01/20 23:02:04;;;;;;;17.55;6.95;;;5.50;99.90;;;;;;10502608;28;20073;-68
2023/01/20 23:07:23;;;;;;;14.45;7.00;;;5.50;99.90;;;;;;10511048;28;20048;-63
2023/01/20 23:12:43;;;;;;;15.48;6.90;;;5.30;99.90;;;;;;10500440;28;20411;-66
2023/01/20 23:18:03;;;;;;;14.98;6.55;;;5.50;99.90;;;;;;10504460;28;20016;-67
2023/01/20 23:23:24;;;;;;;12.80;6.45;;;6.70;99.90;;;;;;10509928;28;20040;-66
2023/01/20 23:28:45;;;;;;;15.05;6.70;;;5.40;99.90;;;;;;10518209;28;20141;-68
2023/01/20 23:34:04;;;;;;;14.23;6.13;;;6.90;99.90;;;;;;10514691;28;20356;-66
2023/01/20 23:39:24;;;;;;;;;;;5.40;99.90;;;;;;10505570;28;20122;-66
2023/01/20 23:44:43;;;;;;;14.95;6.78;;;5.40;99.90;;;;;;10502172;28;19930;-67
2023/01/20 23:50:03;;;;;;;14.45;6.00;;;5.40;99.90;;;;;;10512137;28;20036;-68
2023/01/20 23:55:22;;;;;;;13.70;5.85;;;5.40;99.90;;;;;;10515753;28;20020;-62
